Time;durP1;ratioP1;P1;durP2;ratioP2;P2;SDS_P1;SDS_P2;PMS_P1;PMS_P2;Temp;Humidity;BMP_temperature;BMP_pressure;BME280_temperature;BME280_humidity;BME280_pressure;Samples;Min_cycle;Max_cycle;Signal;HPM_P1;HPM_P2
2023/05/04 05:18:43;;;;;;;13.80;6.38;;;;;;;;;;6175730;22;20025;-83
2023/05/04 05:21:10;;;;;;;14.95;5.93;;;;;;;;;;6180287;23;20025;-82
2023/05/04 05:23:36;;;;;;;12.23;5.90;;;;;;;;;;6153264;23;20337;-82
2023/05/04 05:26:02;;;;;;;9.82;5.18;;;;;;;;;;6154166;23;20417;-82
2023/05/04 05:28:29;;;;;;;16.08;6.00;;;;;;;;;;6181522;23;20009;-82
2023/05/04 05:30:55;;;;;;;12.05;5.40;;;;;;;;;;6154438;23;20009;-83
2023/05/04 05:33:21;;;;;;;15.20;6.20;;;;;;;;;;6180738;23;20021;-82
2023/05/04 05:35:47;;;;;;;15.80;6.05;;;;;;;;;;6181113;23;20425;-85
2023/05/04 05:38:15;;;;;;;10.85;5.05;;;;;;;;;;6154003;23;20016;-83
2023/05/04 05:40:41;;;;;;;13.00;6.35;;;;;;;;;;6181182;23;20421;-83
2023/05/04 05:43:07;;;;;;;13.70;6.80;;;;;;;;;;6180953;23;20028;-83
2023/05/04 05:45:33;;;;;;;19.80;6.75;;;;;;;;;;6180563;23;20013;-83
2023/05/04 05:47:59;;;;;;;17.85;7.18;;;;;;;;;;6180425;23;20009;-83
2023/05/04 05:50:25;;;;;;;13.95;6.28;;;;;;;;;;6154711;23;20013;-83
2023/05/04 05:52:51;;;;;;;14.68;6.80;;;;;;;;;;6180371;23;20013;-83
2023/05/04 05:55:17;;;;;;;14.90;5.95;;;;;;;;;;6154913;23;20040;-83
2023/05/04 05:57:43;;;;;;;14.30;6.30;;;;;;;;;;6153639;23;20333;-83
2023/05/04 06:00:09;;;;;;;15.63;6.25;;;;;;;;;;6154680;23;20013;-83
2023/05/04 06:02:36;;;;;;;12.85;6.57;;;;;;;;;;6180500;23;20162;-83
2023/05/04 06:05:02;;;;;;;17.83;7.15;;;;;;;;;;6180793;23;20013;-83
2023/05/04 06:07:28;;;;;;;18.65;6.82;;;;;;;;;;6180663;23;20009;-83
2023/05/04 06:09:55;;;;;;;12.80;6.45;;;;;;;;;;6181127;23;20020;-83
2023/05/04 06:12:21;;;;;;;17.33;6.82;;;;;;;;;;6180577;23;20013;-83
2023/05/04 06:14:47;;;;;;;12.13;5.35;;;;;;;;;;6154942;23;20016;-83
2023/05/04 06:17:13;;;;;;;16.17;7.20;;;;;;;;;;6181282;23;20024;-83
2023/05/04 06:19:39;;;;;;;13.55;7.15;;;;;;;;;;6156239;23;20001;-83
2023/05/04 06:22:05;;;;;;;18.48;6.63;;;;;;;;;;6183375;23;20039;-83
2023/05/04 06:24:32;;;;;;;11.48;6.45;;;;;;;;;;6182611;23;20333;-83
2023/05/04 06:26:58;;;;;;;9.77;4.75;;;;;;;;;;6183309;23;20001;-83
2023/05/04 06:29:24;;;;;;;11.90;3.10;;;;;;;;;;6156064;23;20001;-83
2023/05/04 06:31:50;;;;;;;6.97;2.38;;;;;;;;;;6156563;23;20013;-83
2023/05/04 06:34:16;;;;;;;4.45;2.53;;;;;;;;;;6182572;23;20047;-84
2023/05/04 06:36:43;;;;;;;12.68;2.67;;;;;;;;;;6183114;23;20005;-84
2023/05/04 06:39:09;;;;;;;5.63;2.60;;;;;;;;;;6155891;23;20005;-84
2023/05/04 06:41:38;;;;;;;4.97;2.90;;;;;;;;;;6156482;23;20431;-84
2023/05/04 06:44:04;;;;;;;7.57;2.67;;;;;;;;;;6182629;23;20016;-84
2023/05/04 06:46:30;;;;;;;12.60;3.90;;;;;;;;;;6156350;23;20573;-84
2023/05/04 06:48:57;;;;;;;8.73;3.50;;;;;;;;;;6182366;23;20017;-83
2023/05/04 06:51:23;;;;;;;7.70;3.33;;;;;;;;;;6182230;23;20019;-84
2023/05/04 06:53:49;;;;;;;10.07;3.50;;;;;;;;;;6155235;23;20020;-83
2023/05/04 06:56:15;;;;;;;12.65;5.10;;;;;;;;;;6182750;23;20361;-83
2023/05/04 06:58:42;;;;;;;9.50;4.50;;;;;;;;;;6182417;23;20013;-84
2023/05/04 07:01:08;;;;;;;10.77;4.18;;;;;;;;;;6182371;23;20005;-84
2023/05/04 07:03:34;;;;;;;15.20;5.75;;;;;;;;;;6156163;23;20340;-84
2023/05/04 07:06:00;;;;;;;5.85;3.25;;;;;;;;;;6155877;23;20092;-84
2023/05/04 07:08:26;;;;;;;8.90;2.95;;;;;;;;;;6155962;23;20021;-84
2023/05/04 07:10:52;;;;;;;8.32;3.25;;;;;;;;;;6182063;23;20005;-84
2023/05/04 07:13:18;;;;;;;9.77;3.47;;;;;;;;;;6156539;23;20055;-84
2023/05/04 07:15:44;;;;;;;8.35;3.55;;;;;;;;;;6182737;23;20016;-84
2023/05/04 07:18:11;;;;;;;10.57;3.30;;;;;;;;;;6156100;23;20076;-84
2023/05/04 07:20:37;;;;;;;11.68;4.07;;;;;;;;;;6156017;23;20008;-84
2023/05/04 07:23:03;;;;;;;8.10;3.90;;;;;;;;;;6182444;23;20009;-84
2023/05/04 07:25:30;;;;;;;9.23;3.50;;;;;;;;;;6155558;23;20032;-84
2023/05/04 07:27:57;;;;;;;9.25;3.50;;;;;;;;;;6156013;23;20021;-85
2023/05/04 07:30:24;;;;;;;12.00;3.38;;;;;;;;;;6155299;23;20044;-84
2023/05/04 07:32:50;;;;;;;7.25;3.15;;;;;;;;;;6155816;23;20024;-85
2023/05/04 07:35:17;;;;;;;11.77;2.85;;;;;;;;;;6155130;23;20016;-84
2023/05/04 07:37:43;;;;;;;5.93;3.47;;;;;;;;;;6155370;23;20318;-84
2023/05/04 07:40:10;;;;;;;9.65;3.00;;;;;;;;;;6181545;23;20409;-84
2023/05/04 07:42:36;;;;;;;8.93;2.90;;;;;;;;;;6182783;23;20028;-84
2023/05/04 07:45:02;;;;;;;7.70;3.55;;;;;;;;;;6181426;23;20080;-84
2023/05/04 07:47:28;;;;;;;5.72;2.80;;;;;;;;;;6155558;23;20024;-84
2023/05/04 07:49:54;;;;;;;13.52;2.90;;;;;;;;;;6155094;23;20598;-84
2023/05/04 07:52:20;;;;;;;10.77;3.20;;;;;;;;;;6155988;23;20457;-84
2023/05/04 07:54:46;;;;;;;8.13;3.22;;;;;;;;;;6154880;23;20008;-84
2023/05/04 07:57:12;;;;;;;9.98;3.08;;;;;;;;;;6155959;23;20013;-84
2023/05/04 07:59:38;;;;;;;8.43;3.22;;;;;;;;;;6181705;23;20033;-85
2023/05/04 08:02:05;;;;;;;9.20;2.95;;;;;;;;;;6155331;23;20016;-84
2023/05/04 08:04:31;;;;;;;7.80;2.75;;;;;;;;;;6155995;23;20440;-83
2023/05/04 08:06:57;;;;;;;7.65;2.63;;;;;;;;;;6155230;23;20012;-84
2023/05/04 08:09:23;;;;;;;11.45;3.15;;;;;;;;;;6155423;23;20012;-84
2023/05/04 08:11:49;;;;;;;7.65;3.30;;;;;;;;;;6181342;23;20051;-85
2023/05/04 08:14:16;;;;;;;6.85;2.50;;;;;;;;;;6155444;23;20013;-84
2023/05/04 08:16:42;;;;;;;8.50;3.63;;;;;;;;;;6154777;23;20079;-84
2023/05/04 08:19:08;;;;;;;7.00;2.83;;;;;;;;;;6155031;23;20075;-85
2023/05/04 08:21:35;;;;;;;7.65;2.90;;;;;;;;;;6154138;23;20015;-85
2023/05/04 08:24:01;;;;;;;9.75;3.45;;;;;;;;;;6155382;23;20005;-84
2023/05/04 08:26:27;;;;;;;10.90;3.70;;;;;;;;;;6154368;23;20528;-85
2023/05/04 08:28:53;;;;;;;7.53;2.85;;;;;;;;;;6155584;23;20009;-85
2023/05/04 08:31:20;;;;;;;7.65;2.42;;;;;;;;;;6154592;23;20009;-84
2023/05/04 08:33:46;;;;;;;8.18;2.95;;;;;;;;;;6155499;23;20015;-85
2023/05/04 08:36:12;;;;;;;9.73;2.95;;;;;;;;;;6154587;23;20009;-84
2023/05/04 08:38:38;;;;;;;8.80;3.22;;;;;;;;;;6155349;23;20440;-85
2023/05/04 08:41:05;;;;;;;12.60;3.65;;;;;;;;;;6154500;23;20691;-85
2023/05/04 08:43:34;;;;;;;11.40;3.40;;;;;;;;;;6155288;23;20013;-85
2023/05/04 08:46:00;;;;;;;12.20;3.47;;;;;;;;;;6181444;23;20013;-85
2023/05/04 08:48:26;;;;;;;8.63;3.22;;;;;;;;;;6155637;23;20013;-85
2023/05/04 08:50:52;;;;;;;7.38;2.70;;;;;;;;;;6154873;23;20017;-85
2023/05/04 08:53:18;;;;;;;6.10;2.80;;;;;;;;;;6155538;23;20013;-85
2023/05/04 08:55:46;;;;;;;8.73;2.67;;;;;;;;;;6181278;23;20036;-85
2023/05/04 08:58:13;;;;;;;6.57;2.67;;;;;;;;;;6181268;23;20005;-85
2023/05/04 09:00:40;;;;;;;8.70;2.63;;;;;;;;;;6154934;23;20432;-85
2023/05/04 09:03:09;;;;;;;6.50;2.40;;;;;;;;;;6181065;23;20112;-85
2023/05/04 09:05:35;;;;;;;9.18;2.95;;;;;;;;;;6154492;23;20020;-85
2023/05/04 09:08:01;;;;;;;9.75;3.22;;;;;;;;;;6154499;23;20021;-85
2023/05/04 09:10:28;;;;;;;10.23;3.60;;;;;;;;;;6181304;23;20063;-85
2023/05/04 09:12:57;;;;;;;12.85;2.78;;;;;;;;;;6154264;23;20317;-84
2023/05/04 09:15:23;;;;;;;8.88;2.95;;;;;;;;;;6154552;23;20024;-85
2023/05/04 09:18:01;;;;;;;6.63;2.65;;;;;;;;;;6153542;23;20013;-85
2023/05/04 09:20:28;;;;;;;6.93;2.47;;;;;;;;;;6181527;23;20091;-85
2023/05/04 09:23:06;;;;;;;8.77;2.50;;;;;;;;;;6153776;23;20572;-85
2023/05/04 09:25:33;;;;;;;3.75;2.42;;;;;;;;;;6154864;23;20021;-85
2023/05/04 09:27:59;;;;;;;7.60;2.60;;;;;;;;;;6154136;23;20020;-84
2023/05/04 09:30:26;;;;;;;4.25;2.10;;;;;;;;;;6154646;23;20016;-85
2023/05/04 09:32:52;;;;;;;5.50;2.28;;;;;;;;;;6154588;23;20009;-85
2023/05/04 09:35:31;;;;;;;4.47;1.73;;;;;;;;;;6181619;23;20017;-85
2023/05/04 09:37:57;;;;;;;5.88;2.10;;;;;;;;;;6154134;23;20009;-85
2023/05/04 09:40:30;;;;;;;6.18;2.00;;;;;;;;;;6154973;23;20314;-85
2023/05/04 09:42:56;;;;;;;5.18;2.00;;;;;;;;;;6154629;23;20032;-85
2023/05/04 09:45:22;;;;;;;4.18;1.58;;;;;;;;;;6154602;23;20025;-85
2023/05/04 09:47:51;;;;;;;6.10;1.88;;;;;;;;;;6154322;23;20340;-86
2023/05/04 09:50:22;;;;;;;6.82;1.83;;;;;;;;;;6154949;23;20017;-85
2023/05/04 09:52:48;;;;;;;4.40;1.73;;;;;;;;;;6155010;23;20384;-86
2023/05/04 09:55:16;;;;;;;5.47;1.85;;;;;;;;;;6156498;23;20702;-86
2023/05/04 09:57:43;;;;;;;9.50;2.33;;;;;;;;;;6156002;23;20005;-86
2023/05/04 10:00:18;;;;;;;4.25;2.17;;;;;;;;;;6156273;23;20023;-86
2023/05/04 10:02:45;;;;;;;6.85;2.05;;;;;;;;;;6156158;23;20064;-86
2023/05/04 10:05:14;;;;;;;7.95;2.10;;;;;;;;;;6156554;23;20844;-85
2023/05/04 10:07:41;;;;;;;5.63;2.10;;;;;;;;;;6156380;23;20070;-85
2023/05/04 10:10:08;;;;;;;9.57;2.13;;;;;;;;;;6155968;23;20639;-85
2023/05/04 10:12:34;;;;;;;6.05;1.88;;;;;;;;;;6156582;23;20012;-86
2023/05/04 10:15:01;;;;;;;5.38;2.17;;;;;;;;;;6156262;23;20024;-86
2023/05/04 10:17:30;;;;;;;4.00;1.77;;;;;;;;;;6155778;23;20009;-86
2023/05/04 10:20:08;;;;;;;4.50;1.80;;;;;;;;;;6156490;23;20696;-86
2023/05/04 10:22:34;;;;;;;5.03;1.80;;;;;;;;;;6156303;23;20588;-86
2023/05/04 10:25:00;;;;;;;4.63;2.17;;;;;;;;;;6183067;23;20013;-86
2023/05/04 10:27:45;;;;;;;6.22;2.15;;;;;;;;;;6156154;23;20687;-86
2023/05/04 10:30:12;;;;;;;2.95;1.60;;;;;;;;;;6156553;23;20025;-86
2023/05/04 10:32:38;;;;;;;5.80;1.88;;;;;;;;;;6156336;23;20009;-85
2023/05/04 10:35:09;;;;;;;8.85;2.38;;;;;;;;;;6156394;23;20037;-86
2023/05/04 10:37:38;;;;;;;6.68;2.10;;;;;;;;;;6182502;23;20008;-86
2023/05/04 10:40:04;;;;;;;5.05;1.83;;;;;;;;;;6155892;23;20024;-85
2023/05/04 10:42:41;;;;;;;3.25;1.40;;;;;;;;;;6155954;23;20104;-86
2023/05/04 10:45:11;;;;;;;7.35;2.10;;;;;;;;;;6155777;23;20092;-86
2023/05/04 10:47:39;;;;;;;5.43;1.98;;;;;;;;;;6155420;23;20389;-85
2023/05/04 10:50:07;;;;;;;3.47;1.80;;;;;;;;;;6156171;23;20036;-85
2023/05/04 10:52:45;;;;;;;4.00;1.65;;;;;;;;;;6156047;23;20059;-86
2023/05/04 10:55:11;;;;;;;8.68;1.90;;;;;;;;;;6156287;23;20021;-86
2023/05/04 10:57:49;;;;;;;4.55;1.80;;;;;;;;;;6155787;23;20013;-86
2023/05/04 11:00:16;;;;;;;4.88;1.77;;;;;;;;;;6155836;23;20016;-85
2023/05/04 11:02:42;;;;;;;5.28;1.92;;;;;;;;;;6155745;23;20013;-86
2023/05/04 11:05:14;;;;;;;6.65;2.15;;;;;;;;;;6156241;23;20055;-85
2023/05/04 11:07:40;;;;;;;4.72;1.80;;;;;;;;;;6155941;23;20041;-86
2023/05/04 11:10:08;;;;;;;4.65;2.20;;;;;;;;;;6156629;23;20017;-86
2023/05/04 11:12:34;;;;;;;7.45;2.13;;;;;;;;;;6155640;23;20012;-86
2023/05/04 11:15:09;;;;;;;6.15;2.00;;;;;;;;;;6182538;23;20013;-86
2023/05/04 11:17:48;;;;;;;5.03;2.00;;;;;;;;;;6155911;23;20021;-86
2023/05/04 11:20:26;;;;;;;5.53;1.95;;;;;;;;;;6155469;23;20020;-86
2023/05/04 11:22:53;;;;;;;7.22;2.72;;;;;;;;;;6182854;23;20001;-86
2023/05/04 11:25:29;;;;;;;5.43;2.30;;;;;;;;;;6155302;23;20013;-86
2023/05/04 11:27:57;;;;;;;4.32;1.70;;;;;;;;;;6155714;23;20020;-86
2023/05/04 11:30:35;;;;;;;5.70;2.25;;;;;;;;;;6154796;23;20020;-86
2023/05/04 11:33:18;;;;;;;5.82;1.95;;;;;;;;;;6155944;23;20016;-85
2023/05/04 11:35:44;;;;;;;9.93;2.42;;;;;;;;;;6155090;23;20336;-86
2023/05/04 11:38:13;;;;;;;7.53;1.92;;;;;;;;;;6155856;23;20005;-86
2023/05/04 11:40:48;;;;;;;4.43;2.17;;;;;;;;;;6181776;23;20647;-86
2023/05/04 11:43:18;;;;;;;6.68;2.00;;;;;;;;;;6182677;23;20009;-86
2023/05/04 11:45:47;;;;;;;5.63;2.33;;;;;;;;;;6154839;23;20105;-85
2023/05/04 11:48:13;;;;;;;6.70;2.13;;;;;;;;;;6155483;23;20013;-85
2023/05/04 11:50:40;;;;;;;3.55;1.63;;;;;;;;;;6155213;23;20100;-85
2023/05/04 11:53:12;;;;;;;5.53;1.85;;;;;;;;;;6155978;23;20020;-85
2023/05/04 11:55:39;;;;;;;6.40;2.00;;;;;;;;;;6181860;23;20021;-86
2023/05/04 11:58:09;;;;;;;5.00;2.10;;;;;;;;;;6182341;23;20005;-86
2023/05/04 12:00:45;;;;;;;6.35;2.08;;;;;;;;;;6155056;23;20028;-85
2023/05/04 12:03:15;;;;;;;4.53;2.00;;;;;;;;;;6155710;23;20016;-85
2023/05/04 12:05:48;;;;;;;6.50;1.95;;;;;;;;;;6154495;23;20025;-85
2023/05/04 12:08:25;;;;;;;5.25;1.92;;;;;;;;;;6181671;23;20064;-85
2023/05/04 12:10:51;;;;;;;5.25;1.95;;;;;;;;;;6154716;23;20032;-86
2023/05/04 12:13:17;;;;;;;3.75;1.70;;;;;;;;;;6155589;23;20028;-85
2023/05/04 12:15:43;;;;;;;7.07;1.90;;;;;;;;;;6153977;23;20027;-85
2023/05/04 12:18:20;;;;;;;7.80;2.05;;;;;;;;;;6154984;23;20021;-86
2023/05/04 12:20:47;;;;;;;3.88;1.83;;;;;;;;;;6154412;23;20044;-86
2023/05/04 12:23:13;;;;;;;5.60;2.08;;;;;;;;;;6155442;23;20013;-86
2023/05/04 12:25:39;;;;;;;6.68;1.98;;;;;;;;;;6154522;23;20062;-86
2023/05/04 12:28:05;;;;;;;5.13;2.10;;;;;;;;;;6155410;23;20009;-86
2023/05/04 12:30:31;;;;;;;4.18;1.90;;;;;;;;;;6155011;23;20063;-86
2023/05/04 12:32:57;;;;;;;5.93;1.95;;;;;;;;;;6154567;23;20020;-86
2023/05/04 12:35:23;;;;;;;4.65;1.73;;;;;;;;;;6155087;23;20016;-86
2023/05/04 12:37:49;;;;;;;5.10;1.80;;;;;;;;;;6154872;23;20036;-86
2023/05/04 12:40:16;;;;;;;5.60;2.03;;;;;;;;;;6154845;23;20017;-86
2023/05/04 12:42:42;;;;;;;3.60;1.70;;;;;;;;;;6155404;23;20012;-86
2023/05/04 12:45:08;;;;;;;5.47;1.98;;;;;;;;;;6154953;23;20021;-86
2023/05/04 12:47:35;;;;;;;10.57;2.42;;;;;;;;;;6154637;23;20009;-86
2023/05/04 12:50:04;;;;;;;4.97;1.77;;;;;;;;;;6154847;23;20294;-86
2023/05/04 12:52:30;;;;;;;8.20;1.83;;;;;;;;;;6154361;23;20040;-86
2023/05/04 12:54:56;;;;;;;5.55;2.40;;;;;;;;;;6154534;23;20515;-86
2023/05/04 12:57:22;;;;;;;6.32;1.98;;;;;;;;;;6154173;23;20056;-86
2023/05/04 12:59:48;;;;;;;5.03;1.85;;;;;;;;;;6154598;23;20040;-86
2023/05/04 13:02:14;;;;;;;5.97;1.67;;;;;;;;;;6154438;23;20321;-86
2023/05/04 13:04:40;;;;;;;4.75;2.03;;;;;;;;;;6155229;23;20067;-86
2023/05/04 13:07:06;;;;;;;5.82;1.90;;;;;;;;;;6154254;23;20746;-86
2023/05/04 13:10:01;;;;;;;5.47;2.05;;;;;;;;;;6129018;23;20025;-85
2023/05/04 13:13:07;;;;;;;4.57;1.65;;;;;;;;;;6059491;23;20038;-86
2023/05/04 13:16:17;;;;;;;;;;;;;;;;;;;;;
2023/05/04 13:19:25;;;;;;;;;;;;;;;;;;;;;
2023/05/04 13:28:47;;;;;;;;;;;;;;;;;;;;;
2023/05/04 13:44:25;;;;;;;6.30;1.60;;;;;;;;;;6148589;23;20072;-85
2023/05/04 14:30:48;;;;;;;4.60;1.48;;;;;;;;;;6153902;23;20025;-85
2023/05/04 15:47:58;;;;;;;5.78;1.10;;;;;;;;;;6152168;23;20013;-85
2023/05/04 16:10:25;;;;;;;6.53;1.33;;;;;;;;;;6164355;23;20153;-85
2023/05/04 16:13:02;;;;;;;5.72;1.50;;;;;;;;;;6153751;23;20044;-84
2023/05/04 16:15:32;;;;;;;6.47;1.23;;;;;;;;;;6154902;23;20829;-84
2023/05/04 16:18:03;;;;;;;4.88;1.38;;;;;;;;;;6154848;23;20023;-84
2023/05/04 16:20:37;;;;;;;3.17;1.00;;;;;;;;;;6180459;23;20005;-83
2023/05/04 16:23:05;;;;;;;5.32;1.02;;;;;;;;;;6154999;23;20013;-84
2023/05/04 16:25:31;;;;;;;6.22;1.52;;;;;;;;;;6155323;23;20033;-83
2023/05/04 16:28:04;;;;;;;5.05;1.25;;;;;;;;;;6181463;23;20067;-84
2023/05/04 16:30:37;;;;;;;4.25;1.17;;;;;;;;;;6154750;23;20017;-84
2023/05/04 16:33:13;;;;;;;6.18;1.33;;;;;;;;;;6154092;23;20055;-84
2023/05/04 16:35:57;;;;;;;5.38;1.02;;;;;;;;;;6154823;23;20017;-83
2023/05/04 16:42:15;;;;;;;;;;;;;;;;;;;;;
2023/05/04 16:50:21;;;;;;;7.10;1.02;;;;;;;;;;6150039;23;20052;-83
2023/05/04 17:29:13;;;;;;;3.83;0.90;;;;;;;;;;6149716;23;20035;-85
2023/05/04 17:32:00;;;;;;;4.05;0.88;;;;;;;;;;6127487;23;20020;-82
2023/05/04 17:50:34;;;;;;;3.88;1.20;;;;;;;;;;6183742;23;20600;-86
2023/05/04 17:53:01;;;;;;;5.05;1.35;;;;;;;;;;6178407;23;20028;-88
2023/05/04 17:55:27;;;;;;;2.58;1.02;;;;;;;;;;6171886;23;20013;-86
2023/05/04 17:58:07;;;;;;;6.68;1.23;;;;;;;;;;6179341;23;20013;-85
2023/05/04 18:00:33;;;;;;;4.72;1.63;;;;;;;;;;6172229;23;20005;-86
2023/05/04 18:02:59;;;;;;;7.57;2.22;;;;;;;;;;6179327;23;20013;-88
2023/05/04 18:05:25;;;;;;;7.10;1.33;;;;;;;;;;6171608;23;20348;-86
2023/05/04 18:07:51;;;;;;;5.55;1.40;;;;;;;;;;6178983;23;20017;-85
2023/05/04 18:10:18;;;;;;;11.20;1.92;;;;;;;;;;6169422;23;20013;-86
2023/05/04 18:12:44;;;;;;;5.82;1.83;;;;;;;;;;6180628;23;20021;-86
2023/05/04 18:15:10;;;;;;;4.53;1.48;;;;;;;;;;6183314;23;20601;-86
2023/05/04 18:17:36;;;;;;;2.42;0.90;;;;;;;;;;6174090;23;20425;-86
2023/05/04 18:20:03;;;;;;;4.57;0.85;;;;;;;;;;6180595;23;20028;-86
2023/05/04 18:22:29;;;;;;;6.13;1.38;;;;;;;;;;6174042;23;20017;-85
2023/05/04 18:24:55;;;;;;;4.18;1.05;;;;;;;;;;6181699;23;20009;-84
2023/05/04 18:27:21;;;;;;;3.30;1.15;;;;;;;;;;6172209;23;20008;-82
2023/05/04 19:27:46;;;;;;;6.70;1.20;;;;;;;;;;6159423;23;20586;-81
2023/05/04 19:30:27;;;;;;;4.57;1.08;;;;;;;;;;6152599;23;20033;-82
2023/05/04 19:32:53;;;;;;;7.47;1.02;;;;;;;;;;6152424;23;20084;-82
2023/05/04 19:35:27;;;;;;;4.80;1.17;;;;;;;;;;6154925;23;20079;-83
2023/05/04 19:38:05;;;;;;;4.25;1.58;;;;;;;;;;6181616;23;20004;-83
2023/05/04 19:40:51;;;;;;;3.17;1.17;;;;;;;;;;6118563;23;20022;-82
2023/05/04 19:44:11;;;;;;;;;;;;;;;;;;;;;
2023/05/04 19:46:45;;;;;;;5.63;1.30;;;;;;;;;;6002935;23;20018;-82
2023/05/04 19:49:20;;;;;;;2.42;0.90;;;;;;;;;;6095200;23;20347;-82
2023/05/04 19:54:25;;;;;;;2.92;0.93;;;;;;;;;;6151619;23;20777;-82
2023/05/04 19:56:57;;;;;;;7.95;1.33;;;;;;;;;;6125748;23;20041;-82
2023/05/04 19:59:41;;;;;;;4.03;1.30;;;;;;;;;;6124620;23;20113;-82
2023/05/04 20:02:07;;;;;;;5.45;1.75;;;;;;;;;;6152458;23;20005;-83
2023/05/04 20:04:38;;;;;;;7.57;2.08;;;;;;;;;;6152338;23;20020;-82
2023/05/04 20:07:04;;;;;;;7.53;1.73;;;;;;;;;;6125374;23;20012;-82
2023/05/04 20:09:31;;;;;;;4.53;1.50;;;;;;;;;;6125773;23;20017;-82
2023/05/04 21:21:49;;;;;;;8.00;1.60;;;;;;;;;;6185543;23;20083;-85
2023/05/04 21:24:15;;;;;;;6.00;1.30;;;;;;;;;;6182846;23;20072;-85
2023/05/04 21:26:41;;;;;;;5.10;1.75;;;;;;;;;;6182491;23;20421;-85
2023/05/04 21:29:11;;;;;;;3.53;1.20;;;;;;;;;;6166446;23;20011;-82
2023/05/04 21:31:37;;;;;;;5.53;1.40;;;;;;;;;;6180099;23;20080;-82
2023/05/04 21:34:05;;;;;;;4.40;1.35;;;;;;;;;;6161390;23;20100;-80
2023/05/04 21:44:42;;;;;;;5.22;1.60;;;;;;;;;;6148496;23;20040;-82
2023/05/04 21:48:05;;;;;;;;;;;;;;;;;;;;;
2023/05/04 23:06:42;;;;;;;9.40;1.70;;;;;;;;;;6180243;23;20044;-82
2023/05/04 23:09:09;;;;;;;7.28;1.45;;;;;;;;;;6155926;23;20023;-84
2023/05/04 23:12:16;;;;;;;;;;;;;;;;;;;;;
2023/05/04 23:18:31;;;;;;;9.48;1.63;;;;;;;;;;6090312;23;20036;-83
2023/05/04 23:24:00;;;;;;;5.07;1.58;;;;;;;;;;6150066;23;20345;-82
2023/05/04 23:26:54;;;;;;;7.60;1.80;;;;;;;;;;6152094;23;20009;-82
2023/05/04 23:29:25;;;;;;;7.93;1.95;;;;;;;;;;6067558;23;20026;-82
2023/05/04 23:35:48;;;;;;;;;;;;;;;;;;;;;
2023/05/04 23:51:59;;;;;;;8.23;2.00;;;;;;;;;;6148328;23;20022;-82
